createdAt,value
2022-09-28T00:00:07.596Z,1.92
2022-09-28T00:02:35.867Z,2.15
2022-09-28T00:05:03.608Z,2.13
2022-09-28T00:07:31.357Z,1.80
2022-09-28T00:10:00.517Z,2.20
2022-09-28T00:12:29.811Z,1.90
2022-09-28T00:14:57.515Z,2.20
2022-09-28T00:17:26.508Z,2.03
2022-09-28T00:19:54.220Z,2.10
2022-09-28T00:22:21.937Z,2.13
2022-09-28T00:24:49.658Z,1.77
2022-09-28T00:27:18.741Z,2.63
2022-09-28T00:29:46.556Z,2.20
2022-09-28T00:32:15.643Z,1.95
2022-09-28T00:34:45.972Z,2.20
2022-09-28T00:37:15.174Z,1.98
2022-09-28T00:39:44.033Z,2.15
2022-09-28T00:42:15.521Z,2.20
2022-09-28T00:44:48.625Z,2.25
2022-09-28T00:47:28.081Z,2.15
2022-09-28T00:50:01.209Z,1.90
2022-09-28T00:52:33.745Z,2.10
2022-09-28T00:55:05.040Z,2.40
2022-09-28T00:57:33.697Z,2.38
2022-09-28T01:00:04.289Z,2.05
2022-09-28T01:02:32.738Z,2.45
2022-09-28T01:05:01.461Z,2.25
2022-09-28T01:07:29.791Z,2.45
2022-09-28T01:09:57.687Z,2.60
2022-09-28T01:12:25.411Z,2.30
2022-09-28T01:14:53.732Z,2.08
2022-09-28T01:17:27.697Z,2.38
2022-09-28T01:20:23.714Z,2.72
2022-09-28T01:23:20.838Z,2.50
2022-09-28T01:25:55.948Z,2.63
2022-09-28T01:28:29.051Z,2.63
2022-09-28T01:31:05.562Z,3.10
2022-09-28T01:33:39.210Z,2.72
2022-09-28T01:36:12.860Z,2.75
2022-09-28T01:38:45.660Z,3.22
2022-09-28T01:41:14.668Z,3.00
2022-09-28T01:43:48.977Z,3.20
2022-09-28T01:46:20.391Z,2.92
2022-09-28T01:48:53.463Z,3.08
2022-09-28T01:51:27.026Z,3.80
2022-09-28T01:53:58.569Z,3.38
2022-09-28T01:56:31.783Z,3.70
2022-09-28T01:59:09.327Z,3.58
2022-09-28T02:01:41.419Z,4.20
2022-09-28T02:04:15.625Z,3.90
2022-09-28T02:06:47.943Z,4.32
2022-09-28T02:09:21.185Z,3.80
2022-09-28T02:11:54.809Z,3.97
2022-09-28T02:14:26.098Z,3.88
2022-09-28T02:16:55.753Z,3.88
2022-09-28T02:19:26.546Z,3.08
2022-09-28T02:21:59.537Z,4.03
2022-09-28T02:24:33.402Z,3.83
2022-09-28T02:27:10.252Z,3.40
2022-09-28T02:32:06.929Z,3.70
2022-09-28T02:34:36.616Z,4.45
2022-09-28T02:37:04.970Z,3.60
2022-09-28T02:39:32.704Z,4.03
2022-09-28T02:42:09.135Z,3.70
2022-09-28T02:45:06.502Z,3.30
2022-09-28T02:47:46.184Z,3.20
2022-09-28T02:50:21.772Z,3.38
2022-09-28T02:53:15.987Z,3.03
2022-09-28T02:55:57.559Z,2.50
2022-09-28T02:58:40.603Z,3.30
2022-09-28T03:01:21.955Z,3.13
2022-09-28T03:03:55.513Z,3.05
2022-09-28T03:06:28.344Z,2.75
2022-09-28T03:09:01.298Z,3.05
2022-09-28T03:11:34.559Z,2.60
2022-09-28T03:14:04.123Z,3.97
2022-09-28T03:16:33.305Z,2.83
2022-09-28T03:19:01.070Z,2.90
2022-09-28T03:21:28.799Z,3.13
2022-09-28T03:23:56.528Z,3.10
2022-09-28T03:26:24.265Z,2.88
2022-09-28T03:28:51.956Z,2.80
2022-09-28T03:31:19.918Z,2.33
2022-09-28T03:33:49.335Z,2.40
2022-09-28T03:36:17.066Z,3.70
2022-09-28T03:38:45.066Z,2.70
2022-09-28T03:41:12.832Z,2.42
2022-09-28T03:43:40.588Z,2.85
2022-09-28T03:46:08.301Z,2.88
2022-09-28T03:48:37.464Z,2.28
2022-09-28T03:51:09.270Z,2.60
2022-09-28T03:53:37.245Z,2.70
2022-09-28T03:56:06.366Z,2.25
2022-09-28T03:58:34.227Z,2.67
2022-09-28T04:01:06.568Z,3.17
2022-09-28T04:03:34.773Z,2.08
2022-09-28T04:06:02.927Z,2.33
2022-09-28T04:08:32.451Z,2.92
2022-09-28T04:11:00.635Z,2.30
2022-09-28T04:13:29.907Z,2.47
2022-09-28T04:15:59.266Z,2.10
2022-09-28T04:18:27.351Z,2.40
2022-09-28T04:21:06.513Z,2.42
2022-09-28T04:23:37.136Z,2.55
2022-09-28T04:26:05.676Z,2.13
2022-09-28T04:28:51.882Z,2.40
2022-09-28T04:31:22.094Z,1.90
2022-09-28T04:33:50.148Z,2.30
2022-09-28T04:36:19.940Z,3.05
2022-09-28T04:38:53.272Z,2.35
2022-09-28T04:41:22.409Z,2.50
2022-09-28T04:43:51.009Z,2.30
2022-09-28T04:46:18.921Z,2.50
2022-09-28T04:48:46.860Z,2.90
2022-09-28T04:51:14.556Z,3.40
2022-09-28T04:53:42.300Z,2.40
2022-09-28T04:56:13.799Z,3.00
2022-09-28T04:58:41.797Z,2.63
2022-09-28T05:01:12.706Z,2.50
2022-09-28T05:03:40.752Z,2.58
2022-09-28T05:06:08.867Z,2.58
2022-09-28T05:08:37.173Z,3.00
2022-09-28T05:11:08.272Z,2.63
2022-09-28T05:13:42.735Z,2.03
2022-09-28T05:16:11.125Z,2.55
2022-09-28T05:18:39.475Z,2.33
2022-09-28T05:21:11.136Z,2.30
2022-09-28T05:23:38.900Z,2.60
2022-09-28T05:26:06.887Z,2.40
2022-09-28T05:28:35.164Z,2.47
2022-09-28T05:31:05.944Z,2.17
2022-09-28T05:33:34.807Z,2.42
2022-09-28T05:36:02.971Z,2.20
2022-09-28T05:38:31.347Z,2.67
2022-09-28T05:41:01.200Z,2.50
2022-09-28T05:43:33.069Z,2.38
2022-09-28T05:46:01.484Z,2.60
2022-09-28T05:48:30.662Z,3.08
2022-09-28T05:50:59.782Z,2.60
2022-09-28T05:53:27.722Z,2.40
2022-09-28T05:55:58.853Z,2.70
2022-09-28T05:58:26.581Z,2.50
2022-09-28T06:00:55.647Z,2.80
2022-09-28T06:03:23.646Z,2.58
2022-09-28T06:05:52.812Z,3.00
2022-09-28T06:08:23.467Z,2.60
2022-09-28T06:10:51.226Z,3.50
2022-09-28T06:13:18.938Z,2.38
2022-09-28T06:15:47.373Z,2.65
2022-09-28T06:18:16.345Z,3.10
2022-09-28T06:20:44.392Z,3.50
2022-09-28T06:23:14.451Z,3.50
2022-09-28T06:25:42.291Z,2.67
2022-09-28T06:28:12.510Z,3.28
2022-09-28T06:30:41.845Z,3.67
2022-09-28T06:33:13.556Z,4.15
2022-09-28T06:35:42.232Z,3.42
2022-09-28T06:38:10.262Z,3.28
2022-09-28T06:40:39.581Z,3.28
2022-09-28T06:43:10.903Z,3.53
2022-09-28T06:45:39.707Z,3.55
2022-09-28T06:48:08.248Z,3.55
2022-09-28T06:50:38.394Z,3.75
2022-09-28T06:53:07.652Z,3.70
2022-09-28T06:55:35.371Z,3.72
2022-09-28T06:58:05.908Z,3.72
2022-09-28T07:00:35.795Z,3.22
2022-09-28T07:03:05.109Z,3.97
2022-09-28T07:05:35.114Z,3.50
2022-09-28T07:08:03.543Z,3.40
2022-09-28T07:10:32.488Z,2.90
2022-09-28T07:13:03.117Z,3.50
2022-09-28T07:15:33.182Z,3.70
2022-09-28T07:18:03.994Z,3.88
2022-09-28T07:20:35.085Z,3.72
2022-09-28T07:25:48.153Z,3.65
2022-09-28T07:28:17.259Z,4.13
2022-09-28T07:30:46.371Z,3.35
2022-09-28T07:33:15.964Z,2.83
2022-09-28T07:35:51.736Z,3.15
2022-09-28T07:38:19.908Z,3.35
2022-09-28T07:41:06.131Z,2.70
2022-09-28T07:43:33.933Z,2.90
2022-09-28T07:46:03.351Z,2.85
2022-09-28T07:48:37.837Z,3.30
2022-09-28T07:51:06.175Z,2.88
2022-09-28T07:53:34.040Z,3.03
2022-09-28T07:56:05.096Z,2.53
2022-09-28T07:58:33.788Z,2.60
2022-09-28T08:01:07.110Z,2.80
2022-09-28T08:03:35.526Z,2.65
2022-09-28T08:06:05.940Z,2.47
2022-09-28T08:08:35.074Z,3.00
2022-09-28T08:11:04.152Z,2.80
2022-09-28T08:13:32.339Z,2.25
2022-09-28T08:16:02.912Z,2.67
2022-09-28T08:18:32.434Z,2.55
2022-09-28T08:21:17.922Z,2.45
2022-09-28T08:23:45.665Z,2.60
2022-09-28T08:26:15.707Z,2.65
2022-09-28T08:28:45.256Z,2.35
2022-09-28T08:31:13.244Z,2.10
2022-09-28T08:33:43.107Z,2.50
2022-09-28T08:36:12.086Z,1.65
2022-09-28T08:38:39.823Z,2.05
2022-09-28T08:41:16.625Z,2.38
2022-09-28T08:46:38.742Z,2.72
2022-09-28T08:49:24.945Z,2.60
2022-09-28T08:52:00.497Z,2.13
2022-09-28T08:54:39.036Z,1.90
2022-09-28T08:57:12.214Z,2.67
2022-09-28T08:59:52.448Z,1.90
2022-09-28T09:02:25.538Z,1.92
2022-09-28T09:04:55.819Z,2.70
2022-09-28T09:07:38.264Z,2.28
2022-09-28T09:10:14.807Z,2.30
2022-09-28T09:12:50.425Z,1.77
2022-09-28T09:15:39.479Z,2.20
2022-09-28T09:18:25.878Z,1.80
2022-09-28T09:20:58.384Z,1.97
2022-09-28T09:23:41.911Z,1.95
2022-09-28T09:26:21.448Z,1.80
2022-09-28T09:29:06.382Z,2.50
2022-09-28T09:31:50.184Z,1.80
2022-09-28T09:34:42.701Z,1.98
2022-09-28T09:37:25.233Z,1.73
2022-09-28T09:40:08.718Z,2.88
2022-09-28T09:42:52.584Z,2.00
2022-09-28T09:45:46.609Z,1.67
2022-09-28T09:48:20.732Z,2.28
2022-09-28T09:50:52.232Z,2.00
2022-09-28T09:53:28.897Z,2.45
2022-09-28T09:58:30.652Z,2.50
2022-09-28T10:01:07.422Z,2.05
2022-09-28T10:03:40.112Z,2.10
2022-09-28T10:06:13.199Z,2.67
2022-09-28T10:08:47.210Z,2.17
2022-09-28T10:11:18.195Z,2.25
2022-09-28T10:13:49.250Z,1.80
2022-09-28T10:16:19.219Z,1.90
2022-09-28T10:18:47.372Z,1.83
2022-09-28T10:21:16.019Z,1.80
2022-09-28T10:23:47.347Z,2.10
2022-09-28T10:26:25.360Z,2.05
2022-09-28T10:28:57.026Z,1.95
2022-09-28T10:31:39.084Z,2.45
2022-09-28T10:34:08.499Z,1.70
2022-09-28T10:36:48.231Z,1.90
2022-09-28T10:39:36.628Z,1.88
2022-09-28T10:42:08.777Z,2.13
2022-09-28T10:44:50.316Z,2.15
2022-09-28T10:47:20.896Z,2.05
2022-09-28T10:49:51.405Z,2.28
2022-09-28T10:52:37.368Z,2.35
2022-09-28T10:55:28.918Z,2.17
2022-09-28T10:57:56.676Z,1.80
2022-09-28T11:00:38.643Z,1.60
2022-09-28T11:03:07.011Z,1.60
2022-09-28T11:05:35.980Z,2.58
2022-09-28T11:08:07.998Z,2.22
2022-09-28T11:10:37.399Z,1.90
2022-09-28T11:13:09.968Z,1.73
2022-09-28T11:15:44.054Z,2.00
2022-09-28T11:18:28.325Z,1.35
2022-09-28T11:21:11.679Z,1.67
2022-09-28T11:23:42.235Z,1.83
2022-09-28T11:26:18.197Z,2.15
2022-09-28T11:28:52.270Z,2.47
2022-09-28T11:31:27.080Z,1.60
2022-09-28T11:34:05.352Z,1.55
2022-09-28T11:36:47.009Z,1.30
2022-09-28T11:39:28.190Z,1.42
2022-09-28T11:42:16.131Z,1.73
2022-09-28T11:44:46.518Z,1.20
2022-09-28T11:47:50.607Z,1.80
2022-09-28T11:50:29.813Z,1.63
2022-09-28T11:53:05.710Z,1.42
2022-09-28T11:55:38.154Z,1.33
2022-09-28T11:58:12.953Z,1.42
2022-09-28T12:00:47.122Z,1.85
2022-09-28T12:03:19.534Z,1.60
2022-09-28T12:05:53.210Z,1.90
2022-09-28T12:08:27.436Z,1.20
2022-09-28T12:11:01.220Z,1.63
2022-09-28T12:13:36.271Z,1.77
2022-09-28T12:16:32.344Z,1.40
2022-09-28T12:21:38.539Z,1.80
2022-09-28T12:24:16.230Z,1.55
2022-09-28T12:26:49.797Z,1.60
2022-09-28T12:29:23.928Z,1.40
2022-09-28T12:31:59.170Z,1.50
2022-09-28T12:34:27.067Z,1.15
2022-09-28T12:37:24.471Z,1.35
2022-09-28T12:40:09.088Z,1.20
2022-09-28T12:42:52.907Z,2.08
2022-09-28T12:45:53.218Z,1.77
2022-09-28T12:48:57.244Z,1.48
2022-09-28T12:51:45.774Z,1.50
2022-09-28T12:54:34.500Z,1.98
2022-09-28T12:57:16.576Z,1.30
2022-09-28T12:59:57.378Z,1.10
2022-09-28T13:03:00.056Z,1.50
2022-09-28T13:06:06.384Z,1.20
2022-09-28T13:08:44.558Z,1.30
2022-09-28T13:11:24.120Z,1.58
2022-09-28T13:14:04.360Z,1.30
2022-09-28T13:16:40.383Z,1.10
2022-09-28T13:19:16.895Z,0.82
2022-09-28T13:21:51.937Z,0.75
2022-09-28T13:24:34.041Z,0.85
2022-09-28T13:27:06.855Z,0.98
2022-09-28T13:29:35.343Z,1.45
2022-09-28T13:32:04.755Z,0.80
2022-09-28T13:34:36.547Z,0.98
2022-09-28T13:37:25.628Z,1.05
2022-09-28T13:39:55.170Z,1.10
2022-09-28T13:42:37.874Z,1.10
2022-09-28T13:45:18.612Z,1.10
2022-09-28T13:48:06.740Z,1.00
2022-09-28T13:50:49.955Z,1.67
2022-09-28T13:53:28.307Z,1.02
2022-09-28T13:56:05.623Z,1.60
2022-09-28T13:58:39.971Z,2.13
2022-09-28T14:01:12.565Z,2.67
2022-09-28T14:03:54.317Z,2.58
2022-09-28T14:06:26.996Z,2.40
2022-09-28T14:09:25.549Z,1.60
2022-09-28T14:11:58.916Z,1.80
2022-09-28T14:14:50.359Z,1.30
2022-09-28T14:17:53.242Z,1.38
2022-09-28T14:20:27.808Z,1.60
2022-09-28T14:23:16.997Z,1.05
2022-09-28T14:25:46.488Z,1.20
2022-09-28T14:28:30.765Z,0.95
2022-09-28T14:30:59.858Z,1.48
2022-09-28T14:33:30.453Z,1.23
2022-09-28T14:36:02.223Z,1.15
2022-09-28T14:38:53.518Z,1.00
2022-09-28T14:41:33.810Z,1.00
2022-09-28T14:44:04.903Z,1.33
2022-09-28T14:46:44.729Z,1.00
2022-09-28T14:49:51.314Z,0.75
2022-09-28T14:52:38.963Z,1.73
2022-09-28T14:55:13.755Z,0.88
2022-09-28T14:57:43.114Z,1.00
2022-09-28T15:00:20.270Z,1.38
2022-09-28T15:02:52.629Z,1.23
2022-09-28T15:05:25.429Z,1.08
2022-09-28T15:07:54.548Z,1.00
2022-09-28T15:10:32.357Z,1.20
2022-09-28T15:13:02.404Z,1.05
2022-09-28T15:15:34.525Z,0.80
2022-09-28T15:18:42.695Z,1.00
2022-09-28T15:21:11.609Z,0.82
2022-09-28T15:23:41.646Z,0.70
2022-09-28T15:26:24.119Z,0.90
2022-09-28T15:28:51.849Z,1.00
2022-09-28T15:31:21.773Z,0.70
2022-09-28T15:34:07.334Z,0.63
2022-09-28T15:36:39.716Z,0.90
2022-09-28T15:39:13.432Z,0.73
2022-09-28T15:41:44.263Z,0.70
2022-09-28T15:44:29.075Z,0.70
2022-09-28T15:47:08.478Z,0.55
2022-09-28T15:49:41.189Z,0.85
2022-09-28T15:52:23.155Z,0.82
2022-09-28T15:54:51.299Z,0.75
2022-09-28T15:57:37.044Z,0.60
2022-09-28T16:00:08.088Z,1.40
2022-09-28T16:02:36.728Z,0.60
2022-09-28T16:05:05.388Z,0.60
2022-09-28T16:07:38.421Z,0.77
2022-09-28T16:10:37.652Z,0.65
2022-09-28T16:13:15.646Z,0.55
2022-09-28T16:15:43.973Z,0.75
2022-09-28T16:18:22.135Z,0.40
2022-09-28T16:20:52.344Z,0.30
2022-09-28T16:23:26.936Z,0.57
2022-09-28T16:25:59.824Z,0.50
2022-09-28T16:28:46.216Z,0.60
2022-09-28T16:31:27.909Z,0.60
2022-09-28T16:33:58.955Z,0.45
2022-09-28T16:36:29.870Z,0.60
2022-09-28T16:38:57.647Z,0.70
2022-09-28T16:41:30.344Z,0.43
2022-09-28T16:44:01.048Z,0.50
2022-09-28T16:46:32.607Z,0.60
2022-09-28T16:49:02.999Z,0.50
2022-09-28T16:51:30.815Z,0.52
2022-09-28T16:54:19.025Z,0.57
2022-09-28T16:56:48.122Z,0.45
2022-09-28T16:59:15.989Z,0.60
2022-09-28T17:01:44.009Z,0.77
2022-09-28T17:04:12.705Z,0.80
2022-09-28T17:06:40.500Z,0.57
2022-09-28T17:09:12.825Z,0.75
2022-09-28T17:11:40.931Z,0.80
2022-09-28T17:14:10.132Z,0.60
2022-09-28T17:19:28.756Z,0.60
2022-09-28T17:21:56.504Z,0.70
2022-09-28T17:24:24.342Z,0.60
2022-09-28T17:26:53.145Z,0.70
2022-09-28T17:29:22.372Z,0.55
2022-09-28T17:31:50.062Z,0.70
2022-09-28T17:34:18.028Z,0.55
2022-09-28T17:36:46.178Z,0.70
2022-09-28T17:39:15.295Z,0.70
2022-09-28T17:41:43.075Z,0.77
2022-09-28T17:44:11.227Z,0.60
2022-09-28T17:46:45.873Z,0.93
2022-09-28T17:49:14.061Z,0.60
2022-09-28T17:51:42.117Z,0.93
2022-09-28T17:54:09.933Z,0.80
2022-09-28T17:56:38.078Z,0.70
2022-09-28T17:59:07.299Z,0.80
2022-09-28T18:01:38.863Z,1.10
2022-09-28T18:04:13.204Z,0.90
2022-09-28T18:06:46.954Z,0.75
2022-09-28T18:09:16.443Z,0.95
2022-09-28T18:11:46.058Z,0.73
2022-09-28T18:14:13.881Z,0.93
2022-09-28T18:16:41.678Z,1.05
2022-09-28T18:19:10.797Z,0.90
2022-09-28T18:21:38.522Z,1.00
2022-09-28T18:24:06.541Z,1.00
2022-09-28T18:26:34.369Z,0.88
2022-09-28T18:29:02.095Z,0.85
2022-09-28T18:31:29.918Z,0.98
2022-09-28T18:34:01.669Z,1.30
2022-09-28T18:36:31.799Z,1.20
2022-09-28T18:39:01.494Z,1.20
2022-09-28T18:41:29.721Z,1.30
2022-09-28T18:44:00.765Z,1.33
2022-09-28T18:46:29.403Z,1.35
2022-09-28T18:48:57.671Z,1.45
2022-09-28T18:51:25.451Z,1.50
2022-09-28T18:53:54.571Z,1.45
2022-09-28T18:56:22.871Z,1.30
2022-09-28T18:58:52.756Z,1.42
2022-09-28T19:01:30.753Z,1.35
2022-09-28T19:04:00.206Z,1.40
2022-09-28T19:06:28.299Z,1.60
2022-09-28T19:08:57.838Z,1.38
2022-09-28T19:11:27.107Z,1.60
2022-09-28T19:13:56.034Z,1.50
2022-09-28T19:16:26.044Z,1.52
2022-09-28T19:18:53.974Z,1.40
2022-09-28T19:21:22.179Z,1.70
2022-09-28T19:23:50.215Z,1.38
2022-09-28T19:26:21.417Z,2.00
2022-09-28T19:28:49.333Z,1.48
2022-09-28T19:31:17.563Z,1.95
2022-09-28T19:33:46.777Z,1.40
2022-09-28T19:36:17.727Z,1.70
2022-09-28T19:38:46.355Z,1.52
2022-09-28T19:41:39.315Z,1.88
2022-09-28T19:44:13.509Z,1.85
2022-09-28T19:46:41.686Z,2.20
2022-09-28T19:49:12.482Z,2.50
2022-09-28T19:52:01.709Z,2.40
2022-09-28T19:54:36.170Z,2.40
2022-09-28T19:57:07.945Z,2.47
2022-09-28T19:59:38.035Z,2.47
2022-09-28T20:02:07.256Z,2.53
2022-09-28T20:04:35.174Z,2.85
2022-09-28T20:07:03.699Z,3.13
2022-09-28T20:09:32.353Z,2.85
2022-09-28T20:12:00.175Z,3.15
2022-09-28T20:14:32.026Z,3.15
2022-09-28T20:17:05.574Z,3.30
2022-09-28T20:19:33.584Z,3.20
2022-09-28T20:22:03.180Z,2.60
2022-09-28T20:24:31.576Z,2.55
2022-09-28T20:27:00.638Z,2.95
2022-09-28T20:29:28.343Z,2.63
2022-09-28T20:31:56.792Z,3.25
2022-09-28T20:34:25.903Z,3.13
2022-09-28T20:36:53.842Z,3.35
2022-09-28T20:39:21.639Z,3.08
2022-09-28T20:41:49.423Z,2.90
2022-09-28T20:44:17.515Z,3.65
2022-09-28T20:46:45.400Z,4.10
2022-09-28T20:49:13.190Z,3.58
2022-09-28T20:51:42.367Z,3.78
2022-09-28T20:54:10.291Z,3.90
2022-09-28T20:56:39.012Z,4.20
2022-09-28T20:59:09.099Z,3.67
2022-09-28T21:01:36.934Z,4.57
2022-09-28T21:04:06.849Z,4.90
2022-09-28T21:06:36.930Z,5.00
2022-09-28T21:09:07.724Z,5.03
2022-09-28T21:11:36.655Z,5.82
2022-09-28T21:14:06.373Z,5.10
2022-09-28T21:16:35.608Z,5.40
2022-09-28T21:19:03.625Z,5.10
2022-09-28T21:21:31.409Z,4.78
2022-09-28T21:23:59.766Z,5.25
2022-09-28T21:26:31.323Z,4.93
2022-09-28T21:29:01.425Z,4.65
2022-09-28T21:31:32.528Z,4.80
2022-09-28T21:34:00.706Z,4.93
2022-09-28T21:36:28.525Z,4.57
2022-09-28T21:38:56.226Z,4.45
2022-09-28T21:41:24.396Z,4.35
2022-09-28T21:43:53.730Z,4.50
2022-09-28T21:46:21.611Z,4.68
2022-09-28T21:48:53.587Z,4.53
2022-09-28T21:51:21.981Z,4.13
2022-09-28T21:53:50.258Z,4.78
2022-09-28T21:56:18.596Z,4.20
2022-09-28T21:58:46.328Z,4.15
2022-09-28T22:01:18.295Z,4.05
2022-09-28T22:03:48.112Z,3.70
2022-09-28T22:06:16.283Z,4.85
2022-09-28T22:08:43.995Z,4.28
2022-09-28T22:11:13.367Z,3.55
2022-09-28T22:13:43.310Z,3.92
2022-09-28T22:16:11.892Z,3.53
2022-09-28T22:18:41.528Z,3.95
2022-09-28T22:21:13.495Z,4.32
2022-09-28T22:23:41.555Z,3.40
2022-09-28T22:26:11.549Z,5.00
2022-09-28T22:28:40.259Z,3.67
2022-09-28T22:31:08.065Z,3.22
2022-09-28T22:33:35.786Z,3.95
2022-09-28T22:36:05.336Z,3.13
2022-09-28T22:38:33.591Z,3.70
2022-09-28T22:41:03.369Z,3.55
2022-09-28T22:43:34.024Z,3.40
2022-09-28T22:46:03.384Z,3.67
2022-09-28T22:48:31.431Z,3.35
2022-09-28T22:50:59.588Z,2.85
2022-09-28T22:53:29.492Z,3.72
2022-09-28T22:55:57.474Z,3.17
2022-09-28T22:58:25.263Z,3.03
2022-09-28T23:00:54.008Z,3.08
2022-09-28T23:03:21.692Z,3.00
2022-09-28T23:05:56.503Z,3.50
2022-09-28T23:08:25.302Z,3.40
2022-09-28T23:10:54.443Z,3.00
2022-09-28T23:13:22.249Z,2.90
2022-09-28T23:16:00.286Z,3.05
2022-09-28T23:18:30.717Z,3.20
2022-09-28T23:20:59.971Z,2.90
2022-09-28T23:23:27.701Z,3.38
2022-09-28T23:25:57.473Z,2.83
2022-09-28T23:28:27.008Z,3.28
2022-09-28T23:30:55.015Z,3.20
2022-09-28T23:33:23.665Z,3.22
2022-09-28T23:35:51.689Z,2.97
2022-09-28T23:38:19.877Z,3.28
2022-09-28T23:40:47.933Z,2.90
2022-09-28T23:43:17.029Z,3.08
2022-09-28T23:45:45.020Z,2.60
2022-09-28T23:48:14.956Z,3.10
2022-09-28T23:50:43.540Z,2.55
2022-09-28T23:53:11.867Z,2.95
2022-09-28T23:55:39.641Z,3.35
2022-09-28T23:58:07.459Z,2.95
